Observation data for Seminole on 12/06/2018      Previous  Date       Current Mesonet Observations  Soil Data  Daily Summary Page  Observations in Plain Language
KSM1 060600Z 18011KT 07/03 A3007 RMK A01 T00660033  RH  081%=      5-min Rain = 0
KSM1 060605Z 18010KT 07/03 A3007 RMK A01 T00650034  RH  082%=      5-min Rain = 0
KSM1 060610Z 18010KT 07/03 A3007 RMK A01 T00650034  RH  082%=      5-min Rain = 0
KSM1 060615Z 18008KT 06/03 A3008 RMK A01 T00640033  RH  082%=      5-min Rain = 0
KSM1 060620Z 18008KT 06/03 A3008 RMK A01 T00640033  RH  082%=      5-min Rain = 0
KSM1 060625Z 18007KT 06/03 A3008 RMK A01 T00640033  RH  082%=      5-min Rain = 0
KSM1 060630Z 18007KT 06/03 A3008 RMK A01 T00630033  RH  083%=      5-min Rain = 0
KSM1 060635Z 17007KT 06/03 A3008 RMK A01 T00620033  RH  083%=      5-min Rain = 0
KSM1 060640Z 18008KT 06/03 A3008 RMK A01 T00610033  RH  084%=      5-min Rain = 0
KSM1 060645Z 18009KT 06/03 A3008 RMK A01 T00610033  RH  083%=      5-min Rain = 0
KSM1 060650Z 18008KT 06/03 A3008 RMK A01 T00610033  RH  084%=      5-min Rain = 0
KSM1 060655Z 18008KT 06/03 A3008 RMK A01 T00610033  RH  084%=      5-min Rain = 0
KSM1 060700Z 18008KT 06/03 A3008 RMK A01 T00610033  RH  084%=      5-min Rain = 0
KSM1 060705Z 18007KT 06/03 A3007 RMK A01 T00600033  RH  084%=      5-min Rain = 0
KSM1 060710Z 18006KT 06/03 A3007 RMK A01 T00590032  RH  084%=      5-min Rain = 0
KSM1 060715Z 19007KT 06/03 A3007 RMK A01 T00590032  RH  085%=      5-min Rain = 0
KSM1 060720Z 20007KT 06/03 A3008 RMK A01 T00590033  RH  085%=      5-min Rain = 0
KSM1 060725Z 20006KT 06/03 A3008 RMK A01 T00590032  RH  085%=      5-min Rain = 0
KSM1 060730Z 20006KT 06/03 A3008 RMK A01 T00590032  RH  085%=      5-min Rain = 0
KSM1 060735Z 21006KT 06/03 A3008 RMK A01 T00580032  RH  085%=      5-min Rain = 0
KSM1 060740Z 21006KT 06/03 A3008 RMK A01 T00580032  RH  085%=      5-min Rain = 0
KSM1 060745Z 20005KT 06/03 A3008 RMK A01 T00580032  RH  085%=      5-min Rain = 0
KSM1 060750Z 19003KT 06/03 A3007 RMK A01 T00580032  RH  085%=      5-min Rain = 0
KSM1 060755Z 19003KT 06/03 A3007 RMK A01 T00560031  RH  085%=      5-min Rain = 0
KSM1 060800Z 20003KT 06/03 A3007 RMK A01 T00560031  RH  086%=      5-min Rain = 0
KSM1 060805Z 20003KT 06/03 A3007 RMK A01 T00560031  RH  086%=      5-min Rain = 0
KSM1 060810Z 21003KT 06/03 A3007 RMK A01 T00550031  RH  086%=      5-min Rain = 0
KSM1 060815Z 20004KT 06/03 A3007 RMK A01 T00550031  RH  086%=      5-min Rain = 0
KSM1 060820Z 20003KT 06/03 A3007 RMK A01 T00550031  RH  086%=      5-min Rain = 0
KSM1 060825Z 19003KT 05/03 A3007 RMK A01 T00540030  RH  086%=      5-min Rain = 0
KSM1 060830Z 19003KT 05/03 A3007 RMK A01 T00530030  RH  087%=      5-min Rain = 0
KSM1 060835Z 18004KT 05/03 A3007 RMK A01 T00530030  RH  087%=      5-min Rain = 0
KSM1 060840Z 18004KT 05/03 A3007 RMK A01 T00520031  RH  087%=      5-min Rain = 0
KSM1 060845Z 18004KT 05/03 A3007 RMK A01 T00530032  RH  088%=      5-min Rain = 0
KSM1 060850Z 18004KT 05/03 A3007 RMK A01 T00530032  RH  088%=      5-min Rain = 0
KSM1 060855Z 19003KT 05/03 A3006 RMK A01 T00540033  RH  088%=      5-min Rain = 0
KSM1 060900Z 18004KT 06/03 A3006 RMK A01 T00550033  RH  087%=      5-min Rain = 0
KSM1 060905Z 17004KT 05/03 A3005 RMK A01 T00540032  RH  087%=      5-min Rain = 0
KSM1 060910Z 17004KT 05/03 A3005 RMK A01 T00540032  RH  087%=      5-min Rain = 0
KSM1 060915Z 18004KT 05/03 A3005 RMK A01 T00530031  RH  087%=      5-min Rain = 0
KSM1 060920Z 17004KT 05/03 A3005 RMK A01 T00530031  RH  087%=      5-min Rain = 0
KSM1 060925Z 17004KT 05/03 A3006 RMK A01 T00520031  RH  088%=      5-min Rain = 0
KSM1 060930Z 17003KT 05/03 A3006 RMK A01 T00520031  RH  088%=      5-min Rain = 0
KSM1 060935Z 18004KT 05/03 A3006 RMK A01 T00510031  RH  088%=      5-min Rain = 0
KSM1 060940Z 17004KT 05/03 A3006 RMK A01 T00510031  RH  089%=      5-min Rain = 0
KSM1 060945Z 18004KT 05/03 A3006 RMK A01 T00510031  RH  089%=      5-min Rain = 0
KSM1 060950Z 17003KT 05/03 A3006 RMK A01 T00510031  RH  089%=      5-min Rain = 0
KSM1 060955Z 17003KT 05/03 A3005 RMK A01 T00510031  RH  089%=      5-min Rain = 0
KSM1 061000Z 17003KT 05/03 A3005 RMK A01 T00500031  RH  089%=      5-min Rain = 0
KSM1 061005Z 18003KT 05/03 A3006 RMK A01 T00500031  RH  089%=      5-min Rain = 0
KSM1 061010Z 18003KT 05/03 A3006 RMK A01 T00490030  RH  089%=      5-min Rain = 0
KSM1 061015Z 18003KT 05/03 A3006 RMK A01 T00490030  RH  089%=      5-min Rain = 0
KSM1 061020Z 18003KT 05/03 A3006 RMK A01 T00490030  RH  089%=      5-min Rain = 0
KSM1 061025Z 18003KT 05/03 A3006 RMK A01 T00480030  RH  090%=      5-min Rain = 0
KSM1 061030Z 18003KT 05/03 A3006 RMK A01 T00480030  RH  090%=      5-min Rain = 0
KSM1 061035Z 18002KT 05/03 A3006 RMK A01 T00490031  RH  090%=      5-min Rain = 0
KSM1 061040Z 18002KT 05/03 A3006 RMK A01 T00490032  RH  090%=      5-min Rain = 0
KSM1 061045Z 18002KT 05/03 A3005 RMK A01 T00500032  RH  090%=      5-min Rain = 0
KSM1 061050Z 18002KT 05/03 A3005 RMK A01 T00500032  RH  090%=      5-min Rain = 0
KSM1 061055Z 17002KT 05/03 A3006 RMK A01 T00500032  RH  090%=      5-min Rain = 0
KSM1 061100Z 17001KT 05/03 A3006 RMK A01 T00500032  RH  090%=      5-min Rain = 0
KSM1 061105Z 17001KT 05/03 A3006 RMK A01 T00500032  RH  090%=      5-min Rain = 0
KSM1 061110Z 17000KT 05/03 A3006 RMK A01 T00490031  RH  090%=      5-min Rain = 0
KSM1 061115Z 00000KT 05/03 A3006 RMK A01 T00490030  RH  090%=      5-min Rain = 0
KSM1 061120Z 00000KT 05/03 A3006 RMK A01 T00480029  RH  090%=      5-min Rain = 0
KSM1 061125Z 00000KT 05/03 A3006 RMK A01 T00470029  RH  090%=      5-min Rain = 0
KSM1 061130Z 17000KT 05/03 A3006 RMK A01 T00470029  RH  090%=      5-min Rain = 0
KSM1 061135Z 17001KT 05/03 A3006 RMK A01 T00470030  RH  090%=      5-min Rain = 0
KSM1 061140Z 17002KT 05/03 A3006 RMK A01 T00480031  RH  090%=      5-min Rain = 0
KSM1 061145Z 16002KT 05/03 A3006 RMK A01 T00480031  RH  090%=      5-min Rain = 0
KSM1 061150Z 16003KT 05/03 A3006 RMK A01 T00480031  RH  090%=      5-min Rain = 0
KSM1 061155Z 16002KT 05/03 A3006 RMK A01 T00480031  RH  091%=      5-min Rain = 0
KSM1 061200Z 16001KT 05/03 A3006 RMK A01 T00480031  RH  091%=      5-min Rain = 0
KSM1 061205Z 16001KT 05/03 A3006 RMK A01 T00480031  RH  090%=      5-min Rain = 0
KSM1 061210Z 16000KT 05/03 A3007 RMK A01 T00480031  RH  091%=      5-min Rain = 0
KSM1 061215Z 16001KT 05/03 A3007 RMK A01 T00460029  RH  090%=      5-min Rain = 0
KSM1 061220Z 00000KT 05/03 A3007 RMK A01 T00450028  RH  090%=      5-min Rain = 0
KSM1 061225Z 00000KT 04/03 A3007 RMK A01 T00440028  RH  091%=      5-min Rain = 0
KSM1 061230Z 00000KT 04/03 A3007 RMK A01 T00430028  RH  091%=      5-min Rain = 0
KSM1 061235Z 16001KT 04/03 A3007 RMK A01 T00430028  RH  091%=      5-min Rain = 0
KSM1 061240Z 16001KT 04/03 A3008 RMK A01 T00430028  RH  091%=      5-min Rain = 0
KSM1 061245Z 16000KT 04/03 A3008 RMK A01 T00420026  RH  091%=      5-min Rain = 0
KSM1 061250Z 15001KT 04/02 A3008 RMK A01 T00380022  RH  090%=      5-min Rain = 0
KSM1 061255Z 14001KT 04/02 A3008 RMK A01 T00360021  RH  091%=      5-min Rain = 0
KSM1 061300Z 09000KT 04/02 A3008 RMK A01 T00350021  RH  092%=      5-min Rain = 0
KSM1 061305Z 09000KT 03/02 A3009 RMK A01 T00340021  RH  092%=      5-min Rain = 0
KSM1 061310Z 07001KT 03/02 A3009 RMK A01 T00340021  RH  092%=      5-min Rain = 0
KSM1 061315Z 05002KT 03/02 A301 RMK A01 T00340021  RH  093%=      5-min Rain = 0
KSM1 061320Z 04003KT 03/02 A301 RMK A01 T00340022  RH  093%=      5-min Rain = 0
KSM1 061325Z 04004KT 03/02 A3011 RMK A01 T00340022  RH  093%=      5-min Rain = 0
KSM1 061330Z 04005KT 04/02 A3011 RMK A01 T00350023  RH  093%=      5-min Rain = 0
KSM1 061335Z 03007KT 04/03 A3011 RMK A01 T00380026  RH  094%=      5-min Rain = 0
KSM1 061340Z 02008KT 04/03 A3012 RMK A01 T00400029  RH  094%=      5-min Rain = 0
KSM1 061345Z 01006KT 04/03 A3012 RMK A01 T00430031  RH  093%=      5-min Rain = 0
KSM1 061350Z 02005KT 04/03 A3012 RMK A01 T00440031  RH  093%=      5-min Rain = 0
KSM1 061355Z 02006KT 05/03 A3013 RMK A01 T00450031  RH  092%=      5-min Rain = 0
KSM1 061400Z 02006KT 05/03 A3013 RMK A01 T00450031  RH  092%=      5-min Rain = 0
KSM1 061405Z 02006KT 05/03 A3014 RMK A01 T00460031  RH  092%=      5-min Rain = 0
KSM1 061410Z 02007KT 05/03 A3014 RMK A01 T00460031  RH  091%=      5-min Rain = 0
KSM1 061415Z 01006KT 05/03 A3014 RMK A01 T00480032  RH  091%=      5-min Rain = 0
KSM1 061420Z 01006KT 05/03 A3014 RMK A01 T00500033  RH  091%=      5-min Rain = 0
KSM1 061425Z 02006KT 05/03 A3014 RMK A01 T00520034  RH  090%=      5-min Rain = 0
KSM1 061430Z 02006KT 05/03 A3015 RMK A01 T00530034  RH  089%=      5-min Rain = 0
KSM1 061435Z 02006KT 05/03 A3015 RMK A01 T00540034  RH  089%=      5-min Rain = 0
KSM1 061440Z 02006KT 06/03 A3015 RMK A01 T00550034  RH  088%=      5-min Rain = 0
KSM1 061445Z 02005KT 06/04 A3016 RMK A01 T00560035  RH  088%=      5-min Rain = 0
KSM1 061450Z 01004KT 06/04 A3016 RMK A01 T00570035  RH  087%=      5-min Rain = 0
KSM1 061455Z 01006KT 06/04 A3016 RMK A01 T00580035  RH  087%=      5-min Rain = 0
KSM1 061500Z 02005KT 06/04 A3016 RMK A01 T00590035  RH  086%=      5-min Rain = 0
KSM1 061505Z 02006KT 06/04 A3017 RMK A01 T00600035  RH  086%=      5-min Rain = 0
KSM1 061510Z 01007KT 06/04 A3017 RMK A01 T00610035  RH  085%=      5-min Rain = 0
KSM1 061515Z 01008KT 06/04 A3017 RMK A01 T00620036  RH  085%=      5-min Rain = 0
KSM1 061520Z 02008KT 06/04 A3017 RMK A01 T00630036  RH  084%=      5-min Rain = 0
KSM1 061525Z 01008KT 07/04 A3018 RMK A01 T00650036  RH  083%=      5-min Rain = 0
KSM1 061530Z 01009KT 07/04 A3018 RMK A01 T00670037  RH  083%=      5-min Rain = 0
KSM1 061535Z 02010KT 07/04 A3018 RMK A01 T00680036  RH  081%=      5-min Rain = 0
KSM1 061540Z 02010KT 07/04 A3018 RMK A01 T00690035  RH  080%=      5-min Rain = 0
KSM1 061545Z 02012G17KT 07/03 A3019 RMK A01 T00710034  RH  079%=      5-min Rain = 0
KSM1 061550Z 02013KT 07/03 A3019 RMK A01 T00720033  RH  078%=      5-min Rain = 0
KSM1 061555Z 02014KT 07/03 A302 RMK A01 T00720032  RH  077%=      5-min Rain = 0
KSM1 061600Z 02014G19KT 07/03 A302 RMK A01 T00720030  RH  076%=      5-min Rain = 0
KSM1 061605Z 02016KT 07/02 A302 RMK A01 T00660015  RH  071%=      5-min Rain = 0
KSM1 061610Z 02018KT 06/00 A3021 RMK A01 T00560003  RH  069%=      5-min Rain = 0
KSM1 061615Z 02018KT 05/00 A3021 RMK A01 T00510001  RH  071%=      5-min Rain = 0
KSM1 061620Z 02016G22KT 05/M01 A3021 RMK A01 T00501009  RH  066%=      5-min Rain = 0
KSM1 061625Z 03017KT 05/M02 A3021 RMK A01 T00481018  RH  063%=      5-min Rain = 0
KSM1 061630Z 02018G24KT 05/M02 A3021 RMK A01 T00461023  RH  062%=      5-min Rain = 0
KSM1 061635Z 02018G24KT 04/M03 A3022 RMK A01 T00431025  RH  062%=      5-min Rain = 0
KSM1 061640Z 02017G22KT 04/M03 A3022 RMK A01 T00421025  RH  062%=      5-min Rain = 0
KSM1 061645Z 02018G23KT 04/M03 A3022 RMK A01 T00411026  RH  062%=      5-min Rain = 0
KSM1 061650Z 02017G22KT 04/M03 A3022 RMK A01 T00401027  RH  062%=      5-min Rain = 0
KSM1 061655Z 01017KT 04/M03 A3022 RMK A01 T00401029  RH  061%=      5-min Rain = 0
KSM1 061700Z 01019G24KT 04/M04 A3023 RMK A01 T00361036  RH  060%=      5-min Rain = 0
KSM1 061705Z 02016G21KT 04/M04 A3023 RMK A01 T00361036  RH  059%=      5-min Rain = 0
KSM1 061710Z 02017G23KT 04/M04 A3022 RMK A01 T00361037  RH  059%=      5-min Rain = 0
KSM1 061715Z 01017G22KT 03/M04 A3022 RMK A01 T00331039  RH  059%=      5-min Rain = 0
KSM1 061720Z 01015G20KT 04/M04 A3022 RMK A01 T00351038  RH  059%=      5-min Rain = 0
KSM1 061725Z 01016G21KT 04/M04 A3022 RMK A01 T00361039  RH  058%=      5-min Rain = 0
KSM1 061730Z 01014KT 04/M04 A3022 RMK A01 T00381040  RH  057%=      5-min Rain = 0
KSM1 061735Z 01015KT 04/M04 A3023 RMK A01 T00371043  RH  056%=      5-min Rain = 0
KSM1 061740Z 01017KT 04/M04 A3022 RMK A01 T00371043  RH  056%=      5-min Rain = 0
KSM1 061745Z 01016KT 04/M04 A3022 RMK A01 T00381043  RH  056%=      5-min Rain = 0
KSM1 061750Z 01016G22KT 04/M04 A3022 RMK A01 T00381043  RH  056%=      5-min Rain = 0
KSM1 061755Z 01018G23KT 04/M05 A3022 RMK A01 T00381045  RH  055%=      5-min Rain = 0
KSM1 061800Z 02016KT 04/M05 A3021 RMK A01 T00391045  RH  054%=      5-min Rain = 0
KSM1 061805Z 02016KT 04/M05 A3021 RMK A01 T00401046  RH  054%=      5-min Rain = 0
KSM1 061810Z 02017G22KT 04/M05 A3021 RMK A01 T00421047  RH  053%=      5-min Rain = 0
KSM1 061815Z 02017KT 04/M05 A302 RMK A01 T00431047  RH  052%=      5-min Rain = 0
KSM1 061820Z 02015KT 05/M05 A302 RMK A01 T00451047  RH  051%=      5-min Rain = 0
KSM1 061825Z 01015G20KT 05/M05 A302 RMK A01 T00451050  RH  050%=      5-min Rain = 0
KSM1 061830Z 01017KT 04/M05 A302 RMK A01 T00431051  RH  051%=      5-min Rain = 0
KSM1 061835Z 02018KT 04/M05 A302 RMK A01 T00421052  RH  050%=      5-min Rain = 0
KSM1 061840Z 01016G21KT 04/M05 A302 RMK A01 T00421053  RH  050%=      5-min Rain = 0
KSM1 061845Z 01016G21KT 04/M05 A302 RMK A01 T00431053  RH  050%=      5-min Rain = 0
KSM1 061850Z 01017KT 04/M05 A302 RMK A01 T00421053  RH  050%=      5-min Rain = 0
KSM1 061855Z 01016KT 04/M05 A302 RMK A01 T00441054  RH  049%=      5-min Rain = 0
KSM1 061900Z 01015KT 04/M05 A3019 RMK A01 T00441054  RH  049%=      5-min Rain = 0
KSM1 061905Z 01016G21KT 05/M05 A3019 RMK A01 T00451054  RH  049%=      5-min Rain = 0
KSM1 061910Z 01016G21KT 05/M05 A3019 RMK A01 T00451054  RH  049%=      5-min Rain = 0
KSM1 061915Z 01016G21KT 05/M05 A3019 RMK A01 T00451053  RH  049%=      5-min Rain = 0
KSM1 061920Z 00015G20KT 05/M05 A3018 RMK A01 T00471053  RH  048%=      5-min Rain = 0
KSM1 061925Z 01015KT 05/M05 A3018 RMK A01 T00491052  RH  048%=      5-min Rain = 0
KSM1 061930Z 01015G21KT 05/M05 A3018 RMK A01 T00491053  RH  048%=      5-min Rain = 0
KSM1 061935Z 01016KT 05/M05 A3018 RMK A01 T00471053  RH  048%=      5-min Rain = 0
KSM1 061940Z 01015G20KT 05/M05 A3018 RMK A01 T00451054  RH  049%=      5-min Rain = 0
KSM1 061945Z 01013G18KT 05/M05 A3018 RMK A01 T00461054  RH  049%=      5-min Rain = 0
KSM1 061950Z 01014KT 05/M05 A3018 RMK A01 T00461054  RH  049%=      5-min Rain = 0
KSM1 061955Z 03012KT 05/M05 A3018 RMK A01 T00451052  RH  049%=      5-min Rain = 0
KSM1 062000Z 02012KT 04/M05 A3018 RMK A01 T00441053  RH  050%=      5-min Rain = 0
KSM1 062005Z 01012KT 04/M05 A3019 RMK A01 T00431053  RH  050%=      5-min Rain = 0
KSM1 062010Z 01012KT 04/M05 A3019 RMK A01 T00431053  RH  050%=      5-min Rain = 0
KSM1 062015Z 01013KT 04/M05 A3019 RMK A01 T00431053  RH  050%=      5-min Rain = 0
KSM1 062020Z 01013KT 04/M05 A3019 RMK A01 T00441052  RH  050%=      5-min Rain = 0
KSM1 062025Z 01013KT 04/M05 A3019 RMK A01 T00441052  RH  050%=      5-min Rain = 0
KSM1 062030Z 02013KT 04/M05 A3019 RMK A01 T00441051  RH  050%=      5-min Rain = 0
KSM1 062035Z 01012KT 04/M05 A3019 RMK A01 T00431050  RH  051%=      5-min Rain = 0
KSM1 062040Z 01012G17KT 04/M05 A302 RMK A01 T00441050  RH  051%=      5-min Rain = 0
KSM1 062045Z 01011KT 04/M05 A302 RMK A01 T00441051  RH  050%=      5-min Rain = 0
KSM1 062050Z 02012KT 04/M05 A302 RMK A01 T00441051  RH  050%=      5-min Rain = 0
KSM1 062055Z 02011KT 04/M05 A3019 RMK A01 T00441049  RH  051%=      5-min Rain = 0
KSM1 062100Z 01012KT 04/M05 A3019 RMK A01 T00441049  RH  051%=      5-min Rain = 0
KSM1 062105Z 01012KT 04/M05 A3019 RMK A01 T00441049  RH  051%=      5-min Rain = 0
KSM1 062110Z 01013KT 05/M05 A3019 RMK A01 T00451047  RH  051%=      5-min Rain = 0
KSM1 062115Z 02011KT 05/M05 A3019 RMK A01 T00461046  RH  052%=      5-min Rain = 0
KSM1 062120Z 02013KT 05/M05 A3019 RMK A01 T00461045  RH  052%=      5-min Rain = 0
KSM1 062125Z 03012G17KT 05/M04 A3018 RMK A01 T00471044  RH  052%=      5-min Rain = 0
KSM1 062130Z 03013KT 05/M04 A3018 RMK A01 T00471044  RH  052%=      5-min Rain = 0
KSM1 062135Z 03012KT 05/M04 A3018 RMK A01 T00461043  RH  052%=      5-min Rain = 0
KSM1 062140Z 03013KT 05/M04 A3019 RMK A01 T00471043  RH  052%=      5-min Rain = 0
KSM1 062145Z 03013KT 05/M04 A3019 RMK A01 T00481043  RH  052%=      5-min Rain = 0
KSM1 062150Z 04011KT 05/M04 A3019 RMK A01 T00481042  RH  052%=      5-min Rain = 0
KSM1 062155Z 03012KT 05/M04 A3019 RMK A01 T00491042  RH  052%=      5-min Rain = 0
KSM1 062200Z 03011KT 05/M04 A302 RMK A01 T00491042  RH  052%=      5-min Rain = 0
KSM1 062205Z 03010KT 05/M04 A302 RMK A01 T00491041  RH  052%=      5-min Rain = 0
KSM1 062210Z 04010KT 05/M04 A302 RMK A01 T00511040  RH  052%=      5-min Rain = 0
KSM1 062215Z 03011KT 05/M04 A302 RMK A01 T00521040  RH  052%=      5-min Rain = 0
KSM1 062220Z 03009KT 05/M04 A3021 RMK A01 T00521040  RH  052%=      5-min Rain = 0
KSM1 062225Z 04010KT 05/M04 A3021 RMK A01 T00521039  RH  052%=      5-min Rain = 0
KSM1 062230Z 04009KT 05/M04 A3021 RMK A01 T00521039  RH  052%=      5-min Rain = 0
KSM1 062235Z 04009KT 05/M04 A3021 RMK A01 T00521039  RH  052%=      5-min Rain = 0
KSM1 062240Z 04009KT 05/M04 A3022 RMK A01 T00521039  RH  052%=      5-min Rain = 0
KSM1 062245Z 03010KT 05/M04 A3022 RMK A01 T00521038  RH  052%=      5-min Rain = 0
KSM1 062250Z 04009KT 05/M04 A3022 RMK A01 T00521038  RH  052%=      5-min Rain = 0
KSM1 062255Z 04008KT 05/M04 A3023 RMK A01 T00521038  RH  052%=      5-min Rain = 0
KSM1 062300Z 05010KT 05/M04 A3022 RMK A01 T00521038  RH  053%=      5-min Rain = 0
KSM1 062305Z 05010KT 05/M04 A3022 RMK A01 T00511038  RH  053%=      5-min Rain = 0
KSM1 062310Z 04010KT 05/M04 A3023 RMK A01 T00511038  RH  053%=      5-min Rain = 0
KSM1 062315Z 05009KT 05/M04 A3023 RMK A01 T00501037  RH  053%=      5-min Rain = 0
KSM1 062320Z 05010KT 05/M04 A3023 RMK A01 T00501037  RH  054%=      5-min Rain = 0
KSM1 062325Z 05010KT 05/M04 A3023 RMK A01 T00491037  RH  054%=      5-min Rain = 0
KSM1 062330Z 04009KT 05/M04 A3023 RMK A01 T00481037  RH  054%=      5-min Rain = 0
KSM1 062335Z 05009KT 05/M04 A3024 RMK A01 T00481037  RH  055%=      5-min Rain = 0
KSM1 062340Z 05008KT 05/M04 A3024 RMK A01 T00471036  RH  055%=      5-min Rain = 0
KSM1 062345Z 05009KT 05/M04 A3024 RMK A01 T00461036  RH  056%=      5-min Rain = 0
KSM1 062350Z 05009KT 05/M04 A3024 RMK A01 T00451036  RH  056%=      5-min Rain = 0
KSM1 062355Z 05008KT 05/M04 A3024 RMK A01 T00451035  RH  056%=      5-min Rain = 0
KSM1 070000Z 05008KT 05/M04 A3024 RMK A01 T00451035  RH  057%=      5-min Rain = 0
KSM1 070005Z 05006KT 05/M03 A3025 RMK A01 T00451034  RH  057%=      5-min Rain = 0
KSM1 070010Z 05006KT 04/M03 A3025 RMK A01 T00441034  RH  057%=      5-min Rain = 0
KSM1 070015Z 05008KT 04/M03 A3025 RMK A01 T00441032  RH  058%=      5-min Rain = 0
KSM1 070020Z 04009KT 04/M03 A3025 RMK A01 T00421029  RH  060%=      5-min Rain = 0
KSM1 070025Z 05008KT 04/M03 A3025 RMK A01 T00411025  RH  063%=      5-min Rain = 0
KSM1 070030Z 05009KT 04/M03 A3024 RMK A01 T00391025  RH  063%=      5-min Rain = 0
KSM1 070035Z 05008KT 04/M03 A3025 RMK A01 T00381026  RH  063%=      5-min Rain = 0
KSM1 070040Z 06009KT 04/M03 A3025 RMK A01 T00371027  RH  063%=      5-min Rain = 0
KSM1 070045Z 05008KT 04/M03 A3025 RMK A01 T00371027  RH  063%=      5-min Rain = 0
KSM1 070050Z 05008KT 04/M03 A3025 RMK A01 T00381028  RH  063%=      5-min Rain = 0
KSM1 070055Z 04008KT 04/M03 A3026 RMK A01 T00371028  RH  063%=      5-min Rain = 0
KSM1 070100Z 03008KT 04/M03 A3026 RMK A01 T00371029  RH  062%=      5-min Rain = 0
KSM1 070105Z 04009KT 04/M03 A3025 RMK A01 T00371029  RH  063%=      5-min Rain = 0
KSM1 070110Z 04010KT 04/M03 A3025 RMK A01 T00371029  RH  062%=      5-min Rain = 0
KSM1 070115Z 04008KT 04/M03 A3025 RMK A01 T00361029  RH  063%=      5-min Rain = 0
KSM1 070120Z 03008KT 04/M03 A3025 RMK A01 T00361029  RH  063%=      5-min Rain = 0
KSM1 070125Z 03010KT 04/M03 A3025 RMK A01 T00351029  RH  063%=      5-min Rain = 0
KSM1 070130Z 03010KT 03/M03 A3025 RMK A01 T00341029  RH  064%=      5-min Rain = 0
KSM1 070135Z 03009KT 03/M03 A3024 RMK A01 T00341028  RH  064%=      5-min Rain = 0
KSM1 070140Z 04009KT 03/M03 A3024 RMK A01 T00341028  RH  064%=      5-min Rain = 0
KSM1 070145Z 05008KT 03/M03 A3024 RMK A01 T00331028  RH  064%=      5-min Rain = 0
KSM1 070150Z 05008KT 03/M03 A3025 RMK A01 T00331028  RH  064%=      5-min Rain = 0
KSM1 070155Z 04007KT 03/M03 A3025 RMK A01 T00331028  RH  065%=      5-min Rain = 0
KSM1 070200Z 04008KT 03/M03 A3025 RMK A01 T00321028  RH  065%=      5-min Rain = 0
KSM1 070205Z 05008KT 03/M03 A3025 RMK A01 T00321027  RH  066%=      5-min Rain = 0
KSM1 070210Z 05006KT 03/M03 A3025 RMK A01 T00311026  RH  066%=      5-min Rain = 0
KSM1 070215Z 04006KT 03/M03 A3025 RMK A01 T00311025  RH  067%=      5-min Rain = 0
KSM1 070220Z 03005KT 03/M03 A3025 RMK A01 T00311025  RH  067%=      5-min Rain = 0
KSM1 070225Z 04006KT 03/M02 A3025 RMK A01 T00311024  RH  068%=      5-min Rain = 0
KSM1 070230Z 04008KT 03/M02 A3025 RMK A01 T00311023  RH  068%=      5-min Rain = 0
KSM1 070235Z 04007KT 03/M02 A3025 RMK A01 T00311022  RH  069%=      5-min Rain = 0
KSM1 070240Z 04006KT 03/M02 A3026 RMK A01 T00311020  RH  069%=      5-min Rain = 0
KSM1 070245Z 04007KT 03/M02 A3026 RMK A01 T00311020  RH  070%=      5-min Rain = 0
KSM1 070250Z 05009KT 03/M02 A3026 RMK A01 T00311019  RH  070%=      5-min Rain = 0
KSM1 070255Z 06010KT 03/M02 A3026 RMK A01 T00301019  RH  070%=      5-min Rain = 0
KSM1 070300Z 05008KT 03/M02 A3027 RMK A01 T00301019  RH  070%=      5-min Rain = 0
KSM1 070305Z 05009KT 03/M02 A3027 RMK A01 T00301020  RH  071%=      5-min Rain = 0
KSM1 070310Z 05007KT 03/M02 A3028 RMK A01 T00301020  RH  071%=      5-min Rain = 0
KSM1 070315Z 05008KT 03/M02 A3027 RMK A01 T00291020  RH  071%=      5-min Rain = 0
KSM1 070320Z 04008KT 03/M02 A3027 RMK A01 T00291019  RH  071%=      5-min Rain = 0
KSM1 070325Z 04007KT 03/M02 A3028 RMK A01 T00281019  RH  072%=      5-min Rain = 0
KSM1 070330Z 03008KT 03/M02 A3028 RMK A01 T00281019  RH  072%=      5-min Rain = 0
KSM1 070335Z 04009KT 03/M02 A3028 RMK A01 T00281019  RH  072%=      5-min Rain = 0
KSM1 070340Z 03009KT 03/M02 A3028 RMK A01 T00281018  RH  072%=      5-min Rain = 0
KSM1 070345Z 03009KT 03/M02 A3028 RMK A01 T00271019  RH  072%=      5-min Rain = 0
KSM1 070350Z 04010KT 03/M02 A3027 RMK A01 T00271019  RH  073%=      5-min Rain = 0
KSM1 070355Z 05012KT 03/M02 A3026 RMK A01 T00251020  RH  073%=      5-min Rain = 0
KSM1 070400Z 05010KT 02/M02 A3025 RMK A01 T00241019  RH  073%=      5-min Rain = 0
KSM1 070405Z 06011KT 02/M02 A3024 RMK A01 T00241019  RH  074%=      5-min Rain = 0
KSM1 070410Z 06010KT 02/M02 A3024 RMK A01 T00231019  RH  074%=      5-min Rain = 0
KSM1 070415Z 06009KT 02/M02 A3025 RMK A01 T00221021  RH  074%=      5-min Rain = 0
KSM1 070420Z 05009KT 02/M02 A3025 RMK A01 T00211021  RH  074%=      5-min Rain = 0
KSM1 070425Z 04008KT 02/M02 A3026 RMK A01 T00211020  RH  075%=      5-min Rain = 0
KSM1 070430Z 04009KT 02/M02 A3026 RMK A01 T00201021  RH  075%=      5-min Rain = 0
KSM1 070435Z 04008KT 02/M02 A3026 RMK A01 T00201022  RH  074%=      5-min Rain = 0
KSM1 070440Z 05009KT 02/M02 A3026 RMK A01 T00191022  RH  075%=      5-min Rain = 0
KSM1 070445Z 06008KT 02/M02 A3026 RMK A01 T00191022  RH  075%=      5-min Rain = 0
KSM1 070450Z 07007KT 02/M02 A3026 RMK A01 T00191022  RH  075%=      5-min Rain = 0
KSM1 070455Z 07007KT 02/M02 A3027 RMK A01 T00181022  RH  075%=      5-min Rain = 0
KSM1 070500Z 05007KT 02/M02 A3028 RMK A01 T00181022  RH  075%=      5-min Rain = 0
KSM1 070505Z 05008KT 02/M02 A3028 RMK A01 T00171023  RH  075%=      5-min Rain = 0
KSM1 070510Z 05007KT 02/M02 A3028 RMK A01 T00171022  RH  076%=      5-min Rain = 0
KSM1 070515Z 05008KT 02/M02 A3029 RMK A01 T00171023  RH  076%=      5-min Rain = 0
KSM1 070520Z 07006KT 02/M02 A303 RMK A01 T00171023  RH  075%=      5-min Rain = 0
KSM1 070525Z 08007KT 02/M02 A303 RMK A01 T00171024  RH  075%=      5-min Rain = 0
KSM1 070530Z 09006KT 02/M02 A303 RMK A01 T00161024  RH  075%=      5-min Rain = 0
KSM1 070535Z 09007KT 02/M03 A303 RMK A01 T00161025  RH  075%=      5-min Rain = 0
KSM1 070540Z 08007KT 02/M03 A303 RMK A01 T00161025  RH  075%=      5-min Rain = 0
KSM1 070545Z 07005KT 02/M03 A3031 RMK A01 T00161025  RH  075%=      5-min Rain = 0
KSM1 070550Z 06006KT 02/M03 A3031 RMK A01 T00161025  RH  075%=      5-min Rain = 0
KSM1 070555Z 05006KT 02/M02 A3031 RMK A01 T00161024  RH  075%=      5-min Rain = 0

Page generated in 0.0154 seconds.